Time;durP1;ratioP1;P1;durP2;ratioP2;P2;SDS_P1;SDS_P2;PMS_P1;PMS_P2;Temp;Humidity;BMP_temperature;BMP_pressure;BME280_temperature;BME280_humidity;BME280_pressure;Samples;Min_cycle;Max_cycle;Signal;HPM_P1;HPM_P2
2023/05/18 00:00:01;;;;;;;;;;;22.60;53.40;;;;;;1546039;75;753;-58
2023/05/18 00:02:03;;;;;;;;;;;22.60;53.40;;;;;;1536600;75;738;-58
2023/05/18 00:04:07;;;;;;;;;;;22.60;53.50;;;;;;1547351;75;1580;-56
2023/05/18 00:06:08;;;;;;;;;;;22.60;53.40;;;;;;1542376;76;1142;-55
2023/05/18 00:08:10;;;;;;;;;;;22.60;53.40;;;;;;1543342;75;1942;-56
2023/05/18 00:10:12;;;;;;;;;;;22.60;53.40;;;;;;1554210;75;639;-56
2023/05/18 00:12:14;;;;;;;;;;;22.60;53.40;;;;;;1549886;74;1109;-57
2023/05/18 00:14:16;;;;;;;;;;;22.60;53.40;;;;;;1548146;75;796;-57
2023/05/18 00:16:18;;;;;;;;;;;22.60;53.20;;;;;;1555303;74;1180;-58
2023/05/18 00:18:22;;;;;;;;;;;22.60;53.30;;;;;;1547840;74;1573;-58
2023/05/18 00:20:25;;;;;;;;;;;22.60;53.30;;;;;;1553225;75;1576;-57
2023/05/18 00:22:27;;;;;;;;;;;22.60;53.10;;;;;;1554070;75;675;-58
2023/05/18 00:24:29;;;;;;;;;;;22.60;53.10;;;;;;1557663;74;747;-57
2023/05/18 00:26:31;;;;;;;;;;;22.60;53.10;;;;;;1559661;74;1164;-56
2023/05/18 00:28:33;;;;;;;;;;;22.60;53.10;;;;;;1562532;74;1943;-57
2023/05/18 00:30:35;;;;;;;;;;;22.70;53.00;;;;;;1551516;75;730;-58
2023/05/18 00:32:36;;;;;;;;;;;22.70;52.80;;;;;;1561699;75;1449;-57
2023/05/18 00:34:38;;;;;;;;;;;22.80;52.70;;;;;;1553045;74;707;-58
2023/05/18 00:36:40;;;;;;;;;;;22.80;52.70;;;;;;1565417;75;1177;-57
2023/05/18 00:38:42;;;;;;;;;;;22.70;52.70;;;;;;1562048;75;835;-59
2023/05/18 00:40:44;;;;;;;;;;;22.70;52.70;;;;;;1552519;75;749;-58
2023/05/18 00:42:46;;;;;;;;;;;22.70;52.60;;;;;;1550526;74;676;-58
2023/05/18 00:44:48;;;;;;;;;;;22.70;52.70;;;;;;1544811;75;797;-59
2023/05/18 00:46:50;;;;;;;;;;;22.70;52.70;;;;;;1552144;74;1478;-59
2023/05/18 00:48:52;;;;;;;;;;;22.80;52.60;;;;;;1560971;74;1955;-59
2023/05/18 00:50:54;;;;;;;;;;;22.80;52.30;;;;;;1563412;75;621;-58
2023/05/18 00:52:56;;;;;;;;;;;22.80;52.30;;;;;;1559224;75;741;-58
2023/05/18 00:54:58;;;;;;;;;;;22.80;52.20;;;;;;1564800;75;573;-58
2023/05/18 00:57:00;;;;;;;;;;;22.90;52.30;;;;;;1557372;75;1142;-59
2023/05/18 00:59:03;;;;;;;;;;;22.80;52.10;;;;;;1552045;74;815;-57
2023/05/18 01:01:05;;;;;;;;;;;22.90;52.10;;;;;;1549740;74;1492;-59
2023/05/18 01:03:09;;;;;;;;;;;22.90;52.20;;;;;;1558354;74;726;-58
2023/05/18 01:05:12;;;;;;;;;;;22.80;52.80;;;;;;1553463;74;1423;-57
2023/05/18 01:07:15;;;;;;;;;;;22.80;52.30;;;;;;1556905;74;1129;-57
2023/05/18 01:09:17;;;;;;;;;;;22.80;52.20;;;;;;1554055;75;1919;-59
2023/05/18 01:11:20;;;;;;;;;;;22.80;52.20;;;;;;1561441;74;1077;-55
2023/05/18 01:13:33;;;;;;;;;;;22.80;52.40;;;;;;1544359;75;1841;-58
2023/05/18 01:15:36;;;;;;;;;;;22.70;52.40;;;;;;1549635;75;1970;-57
2023/05/18 01:17:59;;;;;;;;;;;22.70;52.30;;;;;;1548758;75;1187;-57
2023/05/18 01:20:13;;;;;;;;;;;22.70;52.50;;;;;;1526861;75;1623;-58
2023/05/18 01:22:35;;;;;;;;;;;22.70;52.30;;;;;;1543031;75;1427;-58
2023/05/18 01:24:40;;;;;;;;;;;22.60;52.30;;;;;;1548094;75;680;-58
2023/05/18 01:26:44;;;;;;;;;;;22.70;52.40;;;;;;1547633;75;2052;-58
2023/05/18 01:28:45;;;;;;;;;;;22.60;52.50;;;;;;1540763;75;1911;-57
2023/05/18 01:30:47;;;;;;;;;;;22.60;52.50;;;;;;1537145;75;713;-57
2023/05/18 01:32:49;;;;;;;;;;;22.60;52.50;;;;;;1542783;75;746;-59
2023/05/18 01:34:51;;;;;;;;;;;22.60;52.40;;;;;;1545700;75;774;-59
2023/05/18 01:36:53;;;;;;;;;;;22.60;52.50;;;;;;1554841;75;1175;-59
2023/05/18 01:38:55;;;;;;;;;;;22.60;52.50;;;;;;1554011;75;722;-58
2023/05/18 01:41:01;;;;;;;;;;;22.60;52.40;;;;;;1537316;75;691;-58
2023/05/18 01:43:05;;;;;;;;;;;22.60;52.30;;;;;;1546729;75;1430;-56
2023/05/18 01:45:07;;;;;;;;;;;22.60;52.30;;;;;;1528533;75;1765;-56
2023/05/18 01:47:13;;;;;;;;;;;22.60;52.40;;;;;;1533687;75;1166;-58
2023/05/18 01:49:33;;;;;;;;;;;22.50;52.40;;;;;;1549805;75;1919;-59
2023/05/18 01:51:36;;;;;;;;;;;22.60;52.30;;;;;;1540472;75;788;-59
2023/05/18 01:53:39;;;;;;;;;;;22.60;52.30;;;;;;1533818;75;667;-58
2023/05/18 01:55:41;;;;;;;;;;;22.60;52.30;;;;;;1542029;75;688;-60
2023/05/18 01:57:44;;;;;;;;;;;22.60;52.30;;;;;;1544353;75;1500;-59
2023/05/18 01:59:46;;;;;;;;;;;22.70;52.30;;;;;;1544800;75;727;-58
2023/05/18 02:01:48;;;;;;;;;;;22.70;52.20;;;;;;1534396;75;717;-59
2023/05/18 02:03:50;;;;;;;;;;;22.70;52.20;;;;;;1546026;75;765;-59
2023/05/18 02:05:52;;;;;;;;;;;22.70;52.10;;;;;;1546200;75;636;-59
2023/05/18 02:07:54;;;;;;;;;;;22.70;52.10;;;;;;1540087;75;1943;-58
2023/05/18 02:09:56;;;;;;;;;;;22.70;52.10;;;;;;1534797;75;773;-57
2023/05/18 02:11:58;;;;;;;;;;;22.70;52.10;;;;;;1548486;75;1428;-59
2023/05/18 02:14:00;;;;;;;;;;;22.60;52.00;;;;;;1529051;75;724;-57
2023/05/18 02:16:05;;;;;;;;;;;22.70;52.10;;;;;;1544769;75;1155;-58
2023/05/18 02:18:07;;;;;;;;;;;22.70;52.10;;;;;;1538649;75;841;-58
2023/05/18 02:20:09;;;;;;;;;;;22.60;52.00;;;;;;1540972;75;701;-59
2023/05/18 02:22:11;;;;;;;;;;;22.60;52.00;;;;;;1546275;75;741;-58
2023/05/18 02:24:13;;;;;;;;;;;22.70;52.10;;;;;;1542387;75;721;-57
2023/05/18 02:26:15;;;;;;;;;;;22.70;52.10;;;;;;1541670;75;1592;-59
2023/05/18 02:28:17;;;;;;;;;;;22.70;52.10;;;;;;1544916;75;1923;-59
2023/05/18 02:30:19;;;;;;;;;;;22.70;52.10;;;;;;1546333;75;680;-58
2023/05/18 02:32:22;;;;;;;;;;;22.70;52.10;;;;;;1544369;75;789;-56
2023/05/18 02:34:24;;;;;;;;;;;22.70;52.00;;;;;;1544365;75;754;-58
2023/05/18 02:36:25;;;;;;;;;;;22.70;52.10;;;;;;1533560;75;1131;-57
2023/05/18 02:38:27;;;;;;;;;;;22.70;52.10;;;;;;1539339;75;718;-58
2023/05/18 02:40:29;;;;;;;;;;;22.70;52.10;;;;;;1531968;75;1702;-59
2023/05/18 02:42:31;;;;;;;;;;;22.60;52.00;;;;;;1538754;75;705;-59
2023/05/18 02:44:33;;;;;;;;;;;22.70;52.10;;;;;;1537501;75;782;-59
2023/05/18 02:46:35;;;;;;;;;;;22.70;52.00;;;;;;1543447;75;1188;-58
2023/05/18 02:48:37;;;;;;;;;;;22.60;52.00;;;;;;1536139;75;1936;-57
2023/05/18 02:50:39;;;;;;;;;;;22.70;52.00;;;;;;1553168;75;687;-57
2023/05/18 02:52:41;;;;;;;;;;;22.70;51.90;;;;;;1550574;75;723;-57
2023/05/18 02:54:43;;;;;;;;;;;22.70;51.80;;;;;;1550787;75;1622;-57
2023/05/18 02:56:44;;;;;;;;;;;22.70;51.90;;;;;;1554293;75;1159;-59
2023/05/18 02:58:46;;;;;;;;;;;22.70;51.80;;;;;;1553541;75;704;-59
2023/05/18 03:00:48;;;;;;;;;;;22.70;51.90;;;;;;1542057;75;788;-57
2023/05/18 03:02:50;;;;;;;;;;;22.60;52.00;;;;;;1543191;75;944;-57
2023/05/18 03:04:56;;;;;;;;;;;22.70;52.00;;;;;;1542114;75;748;-60
2023/05/18 03:06:57;;;;;;;;;;;22.70;52.00;;;;;;1530414;75;1592;-56
2023/05/18 03:08:59;;;;;;;;;;;22.70;52.00;;;;;;1539856;75;1923;-58
2023/05/18 03:11:01;;;;;;;;;;;22.60;52.00;;;;;;1537463;75;788;-58
2023/05/18 03:13:03;;;;;;;;;;;22.60;52.00;;;;;;1539383;75;1109;-58
2023/05/18 03:15:05;;;;;;;;;;;22.60;52.00;;;;;;1553196;75;799;-58
2023/05/18 03:17:07;;;;;;;;;;;22.60;52.00;;;;;;1552876;76;1195;-57
2023/05/18 03:19:09;;;;;;;;;;;22.60;52.10;;;;;;1543963;75;679;-59
2023/05/18 03:21:12;;;;;;;;;;;22.60;52.10;;;;;;1555552;75;1576;-56
2023/05/18 03:23:14;;;;;;;;;;;22.60;52.10;;;;;;1538740;75;753;-56
2023/05/18 03:25:16;;;;;;;;;;;22.50;52.10;;;;;;1555523;75;716;-58
2023/05/18 03:27:21;;;;;;;;;;;22.50;52.10;;;;;;1552794;75;1142;-58
2023/05/18 03:29:22;;;;;;;;;;;22.50;52.20;;;;;;1544389;75;1968;-57
2023/05/18 03:31:24;;;;;;;;;;;22.50;52.20;;;;;;1540454;75;720;-57
2023/05/18 03:33:27;;;;;;;;;;;22.50;52.20;;;;;;1542529;75;773;-56
2023/05/18 03:35:29;;;;;;;;;;;22.50;52.20;;;;;;1547910;75;1417;-58
2023/05/18 03:37:31;;;;;;;;;;;22.50;52.30;;;;;;1544841;75;1213;-58
2023/05/18 03:39:32;;;;;;;;;;;22.50;52.30;;;;;;1542107;75;678;-58
2023/05/18 03:41:34;;;;;;;;;;;22.50;52.30;;;;;;1556109;75;712;-56
2023/05/18 03:43:36;;;;;;;;;;;22.50;52.50;;;;;;1544804;75;680;-56
2023/05/18 03:45:38;;;;;;;;;;;22.50;52.50;;;;;;1544352;75;826;-58
2023/05/18 03:47:40;;;;;;;;;;;22.40;52.20;;;;;;1536232;75;1155;-57
2023/05/18 03:49:42;;;;;;;;;;;22.50;52.40;;;;;;1543977;75;1945;-58
2023/05/18 03:51:44;;;;;;;;;;;22.50;52.30;;;;;;1546890;75;669;-57
2023/05/18 03:53:46;;;;;;;;;;;22.50;52.40;;;;;;1540660;75;718;-57
2023/05/18 03:55:48;;;;;;;;;;;22.50;52.40;;;;;;1537097;75;730;-59
2023/05/18 03:57:50;;;;;;;;;;;22.50;52.60;;;;;;1542359;75;1137;-58
2023/05/18 03:59:52;;;;;;;;;;;22.50;52.60;;;;;;1544191;75;723;-56
2023/05/18 04:01:54;;;;;;;;;;;22.50;52.60;;;;;;1550842;75;692;-57
2023/05/18 04:03:56;;;;;;;;;;;22.50;52.60;;;;;;1555200;75;1475;-58
2023/05/18 04:05:58;;;;;;;;;;;22.50;53.00;;;;;;1537368;75;705;-59
2023/05/18 04:08:00;;;;;;;;;;;22.50;53.00;;;;;;1555121;75;1144;-57
2023/05/18 04:10:02;;;;;;;;;;;22.50;53.10;;;;;;1549390;76;1924;-56
2023/05/18 04:12:04;;;;;;;;;;;22.60;52.90;;;;;;1554467;75;769;-55
2023/05/18 04:14:07;;;;;;;;;;;22.60;52.60;;;;;;1555207;74;1117;-57
2023/05/18 04:16:12;;;;;;;;;;;22.60;52.50;;;;;;1554376;75;1200;-56
2023/05/18 04:18:14;;;;;;;;;;;22.60;52.40;;;;;;1562171;75;1418;-58
2023/05/18 04:20:17;;;;;;;;;;;22.60;52.20;;;;;;1567400;75;628;-57
2023/05/18 04:22:20;;;;;;;;;;;22.70;52.30;;;;;;1552051;74;688;-57
2023/05/18 04:24:23;;;;;;;;;;;22.60;52.50;;;;;;1559243;75;661;-58
2023/05/18 04:26:25;;;;;;;;;;;22.60;52.50;;;;;;1566680;75;1158;-57
2023/05/18 04:28:27;;;;;;;;;;;22.60;52.40;;;;;;1559505;75;726;-58
2023/05/18 04:30:29;;;;;;;;;;;22.70;52.30;;;;;;1539982;75;1918;-58
2023/05/18 04:32:35;;;;;;;;;;;22.70;52.20;;;;;;1552028;75;1494;-59
2023/05/18 04:34:36;;;;;;;;;;;22.60;52.30;;;;;;1567125;75;1581;-58
2023/05/18 04:36:39;;;;;;;;;;;22.60;52.30;;;;;;1560839;75;1193;-58
2023/05/18 04:38:41;;;;;;;;;;;22.60;52.30;;;;;;1560719;75;731;-58
2023/05/18 04:40:43;;;;;;;;;;;22.60;52.30;;;;;;1547515;75;805;-57
2023/05/18 04:42:46;;;;;;;;;;;22.60;52.40;;;;;;1564919;75;735;-57
2023/05/18 04:44:51;;;;;;;;;;;22.60;52.40;;;;;;1557441;75;648;-58
2023/05/18 04:46:52;;;;;;;;;;;22.50;52.30;;;;;;1554949;75;1557;-57
2023/05/18 04:48:56;;;;;;;;;;;22.70;52.30;;;;;;1559234;75;1916;-57
2023/05/18 04:50:57;;;;;;;;;;;22.60;52.10;;;;;;1552496;75;1508;-59
2023/05/18 04:53:01;;;;;;;;;;;22.60;52.20;;;;;;1555669;75;737;-60
2023/05/18 04:55:03;;;;;;;;;;;22.60;52.20;;;;;;1560590;75;726;-58
2023/05/18 04:57:05;;;;;;;;;;;22.50;52.30;;;;;;1563812;75;1108;-59
2023/05/18 04:59:08;;;;;;;;;;;22.50;52.30;;;;;;1555812;75;591;-59
2023/05/18 05:01:09;;;;;;;;;;;22.40;52.20;;;;;;1548568;75;1571;-61
2023/05/18 05:03:11;;;;;;;;;;;22.40;52.20;;;;;;1563637;75;700;-58
2023/05/18 05:05:13;;;;;;;;;;;22.40;52.20;;;;;;1554698;75;716;-58
2023/05/18 05:07:15;;;;;;;;;;;22.50;52.30;;;;;;1568309;75;1164;-56
2023/05/18 05:09:17;;;;;;;;;;;22.50;52.30;;;;;;1553716;75;1920;-59
2023/05/18 05:11:20;;;;;;;;;;;22.50;51.50;;;;;;1556633;75;743;-59
2023/05/18 05:13:22;;;;;;;;;;;22.40;52.00;;;;;;1560588;75;620;-57
2023/05/18 05:15:24;;;;;;;;;;;22.40;51.40;;;;;;1545050;75;1600;-56
2023/05/18 05:17:25;;;;;;;;;;;22.50;50.50;;;;;;1536582;75;1205;-59
2023/05/18 05:19:27;;;;;;;;;;;22.50;50.10;;;;;;1554673;75;693;-58
2023/05/18 05:21:30;;;;;;;;;;;22.60;50.00;;;;;;1540825;75;722;-56
2023/05/18 05:23:32;;;;;;;;;;;22.60;49.90;;;;;;1542502;75;787;-60
2023/05/18 05:25:34;;;;;;;;;;;22.60;49.90;;;;;;1540163;75;584;-58
2023/05/18 05:27:36;;;;;;;;;;;22.70;50.20;;;;;;1533367;75;1421;-58
2023/05/18 05:29:38;;;;;;;;;;;22.70;50.00;;;;;;1542738;75;1932;-57
2023/05/18 05:31:40;;;;;;;;;;;22.70;50.20;;;;;;1555089;75;1093;-56
2023/05/18 05:33:42;;;;;;;;;;;22.70;49.50;;;;;;1538971;75;759;-58
2023/05/18 05:35:43;;;;;;;;;;;22.80;49.50;;;;;;1542660;75;801;-57
2023/05/18 05:37:45;;;;;;;;;;;22.80;49.50;;;;;;1533169;75;1190;-56
2023/05/18 05:39:47;;;;;;;;;;;22.80;49.40;;;;;;1528768;75;775;-59
2023/05/18 05:41:49;;;;;;;;;;;22.90;49.70;;;;;;1552978;75;1438;-57
2023/05/18 05:43:51;;;;;;;;;;;22.90;49.60;;;;;;1548221;75;710;-57
2023/05/18 05:45:53;;;;;;;;;;;23.00;49.50;;;;;;1535522;75;727;-57
2023/05/18 05:47:55;;;;;;;;;;;23.00;49.50;;;;;;1541110;75;1104;-57
2023/05/18 05:49:57;;;;;;;;;;;23.10;49.60;;;;;;1526777;75;1940;-57
2023/05/18 05:51:59;;;;;;;;;;;23.20;49.50;;;;;;1557426;75;683;-55
2023/05/18 05:54:01;;;;;;;;;;;23.20;49.50;;;;;;1526205;75;747;-55
2023/05/18 05:56:03;;;;;;;;;;;23.20;49.30;;;;;;1551664;75;1473;-56
2023/05/18 05:58:05;;;;;;;;;;;23.30;49.40;;;;;;1535274;75;758;-57
2023/05/18 06:00:09;;;;;;;;;;;23.30;49.10;;;;;;1552711;75;700;-58
2023/05/18 06:02:11;;;;;;;;;;;23.40;49.00;;;;;;1551554;75;714;-58
2023/05/18 06:04:14;;;;;;;;;;;23.40;48.90;;;;;;1568388;75;639;-55
2023/05/18 06:06:16;;;;;;;;;;;23.50;48.90;;;;;;1560646;75;1100;-56
2023/05/18 06:08:18;;;;;;;;;;;23.60;48.80;;;;;;1534723;75;754;-57
2023/05/18 06:10:20;;;;;;;;;;;23.60;48.70;;;;;;1540470;75;1943;-58
2023/05/18 06:12:22;;;;;;;;;;;23.60;48.70;;;;;;1551396;75;733;-57
2023/05/18 06:14:24;;;;;;;;;;;23.60;48.70;;;;;;1533311;75;1105;-58
2023/05/18 06:16:25;;;;;;;;;;;23.60;48.60;;;;;;1559203;74;1261;-58
2023/05/18 06:18:27;;;;;;;;;;;23.70;48.70;;;;;;1559742;75;777;-57
2023/05/18 06:20:29;;;;;;;;;;;23.70;48.60;;;;;;1564600;74;694;-57
2023/05/18 06:22:31;;;;;;;;;;;23.70;48.50;;;;;;1563016;75;631;-55
2023/05/18 06:24:33;;;;;;;;;;;23.70;48.40;;;;;;1563598;75;1216;-56
2023/05/18 06:26:35;;;;;;;;;;;23.70;48.40;;;;;;1568282;75;1141;-58
2023/05/18 06:28:37;;;;;;;;;;;23.90;48.40;;;;;;1562111;75;742;-58
2023/05/18 06:30:39;;;;;;;;;;;23.90;48.20;;;;;;1553773;74;1950;-57
2023/05/18 06:32:40;;;;;;;;;;;24.00;48.00;;;;;;1561560;75;726;-55
2023/05/18 06:34:44;;;;;;;;;;;24.10;48.00;;;;;;1565168;75;705;-58
2023/05/18 06:36:46;;;;;;;;;;;24.10;47.80;;;;;;1555817;74;1959;-60
2023/05/18 06:38:48;;;;;;;;;;;24.10;47.60;;;;;;1560534;74;1454;-57
2023/05/18 06:40:50;;;;;;;;;;;24.20;47.50;;;;;;1565281;75;737;-57
2023/05/18 06:42:52;;;;;;;;;;;24.20;47.30;;;;;;1561583;75;700;-55
2023/05/18 06:44:53;;;;;;;;;;;24.30;47.40;;;;;;1567207;74;718;-57
2023/05/18 06:46:55;;;;;;;;;;;24.30;47.30;;;;;;1567925;75;1153;-56
2023/05/18 06:48:57;;;;;;;;;;;24.30;47.30;;;;;;1551649;74;770;-56
2023/05/18 06:50:59;;;;;;;;;;;24.30;47.30;;;;;;1569650;75;1936;-56
2023/05/18 06:53:01;;;;;;;;;;;24.30;47.10;;;;;;1569534;75;1555;-57
2023/05/18 06:55:04;;;;;;;;;;;24.30;47.20;;;;;;1567155;75;791;-57
2023/05/18 06:57:06;;;;;;;;;;;24.30;47.00;;;;;;1558128;74;1105;-55
2023/05/18 06:59:07;;;;;;;;;;;24.30;47.10;;;;;;1548271;75;708;-58
2023/05/18 07:01:10;;;;;;;;;;;24.30;47.10;;;;;;1558147;74;749;-58
2023/05/18 07:03:11;;;;;;;;;;;24.30;47.00;;;;;;1567923;74;735;-57
2023/05/18 07:05:13;;;;;;;;;;;24.30;47.00;;;;;;1559238;75;713;-57
2023/05/18 07:07:18;;;;;;;;;;;24.20;46.80;;;;;;1563463;74;1585;-56
2023/05/18 07:09:21;;;;;;;;;;;24.20;46.90;;;;;;1551971;74;662;-57
2023/05/18 07:11:23;;;;;;;;;;;24.20;46.80;;;;;;1554474;75;1931;-55
2023/05/18 07:13:25;;;;;;;;;;;24.20;46.80;;;;;;1555021;74;906;-56
2023/05/18 07:15:27;;;;;;;;;;;24.00;46.80;;;;;;1541862;75;1084;-57
2023/05/18 07:17:29;;;;;;;;;;;24.10;47.10;;;;;;1544031;75;1194;-57
2023/05/18 07:19:31;;;;;;;;;;;24.10;47.20;;;;;;1558237;75;680;-58
2023/05/18 07:21:33;;;;;;;;;;;24.10;47.20;;;;;;1538092;75;1430;-57
2023/05/18 07:23:35;;;;;;;;;;;24.00;47.20;;;;;;1543280;75;715;-57
2023/05/18 07:25:37;;;;;;;;;;;24.00;47.20;;;;;;1551901;75;717;-57
2023/05/18 07:27:39;;;;;;;;;;;24.00;47.30;;;;;;1546685;76;1151;-58
2023/05/18 07:29:41;;;;;;;;;;;24.00;47.50;;;;;;1550130;75;679;-56
2023/05/18 07:31:43;;;;;;;;;;;24.00;47.50;;;;;;1553980;75;1948;-56
2023/05/18 07:33:45;;;;;;;;;;;24.00;47.60;;;;;;1542008;75;712;-56
2023/05/18 07:35:46;;;;;;;;;;;24.00;47.50;;;;;;1539034;75;1481;-55
2023/05/18 07:37:50;;;;;;;;;;;23.90;47.40;;;;;;1543093;75;1219;-55
2023/05/18 07:39:52;;;;;;;;;;;23.90;47.30;;;;;;1543561;76;682;-59
2023/05/18 07:41:54;;;;;;;;;;;23.90;47.50;;;;;;1547911;76;632;-60
2023/05/18 07:43:56;;;;;;;;;;;24.00;47.60;;;;;;1551083;76;876;-57
2023/05/18 07:45:58;;;;;;;;;;;23.90;47.60;;;;;;1536710;75;850;-58
2023/05/18 07:48:00;;;;;;;;;;;24.00;47.60;;;;;;1545781;75;1158;-56
2023/05/18 07:50:02;;;;;;;;;;;24.00;47.60;;;;;;1556213;76;1912;-57
2023/05/18 07:52:06;;;;;;;;;;;24.00;47.70;;;;;;1555716;75;741;-57
2023/05/18 07:54:08;;;;;;;;;;;24.00;47.60;;;;;;1542443;75;669;-60
2023/05/18 07:56:10;;;;;;;;;;;24.00;47.50;;;;;;1541074;75;1160;-55
2023/05/18 07:58:12;;;;;;;;;;;24.00;47.60;;;;;;1561916;75;782;-57
2023/05/18 08:00:16;;;;;;;;;;;24.00;47.60;;;;;;1543788;75;718;-59
2023/05/18 08:02:18;;;;;;;;;;;24.00;47.60;;;;;;1545870;75;1463;-57
2023/05/18 08:04:20;;;;;;;;;;;24.00;47.60;;;;;;1553893;75;673;-57
2023/05/18 08:06:22;;;;;;;;;;;24.10;47.60;;;;;;1551172;75;1140;-60
2023/05/18 08:08:24;;;;;;;;;;;24.10;47.60;;;;;;1554464;76;603;-58
2023/05/18 08:10:27;;;;;;;;;;;24.10;47.60;;;;;;1552397;75;1901;-58
2023/05/18 08:12:28;;;;;;;;;;;24.10;47.50;;;;;;1553319;75;787;-58
2023/05/18 08:14:30;;;;;;;;;;;24.20;47.40;;;;;;1552766;75;834;-57
2023/05/18 08:16:35;;;;;;;;;;;24.20;47.40;;;;;;1541837;75;1464;-57
2023/05/18 08:18:36;;;;;;;;;;;24.10;47.40;;;;;;1537910;76;1588;-58
2023/05/18 08:20:38;;;;;;;;;;;24.10;47.40;;;;;;1542281;76;763;-57
2023/05/18 08:22:40;;;;;;;;;;;24.20;47.40;;;;;;1544151;76;728;-58
2023/05/18 08:24:42;;;;;;;;;;;24.10;47.30;;;;;;1533284;76;709;-58
2023/05/18 08:26:44;;;;;;;;;;;24.10;47.30;;;;;;1538145;76;1143;-57
2023/05/18 08:28:47;;;;;;;;;;;24.10;47.40;;;;;;1543668;75;714;-57
2023/05/18 08:30:49;;;;;;;;;;;24.10;47.40;;;;;;1532892;76;1925;-58
2023/05/18 08:32:51;;;;;;;;;;;24.10;47.40;;;;;;1543819;76;746;-57
2023/05/18 08:34:53;;;;;;;;;;;24.20;47.30;;;;;;1548018;75;732;-57
2023/05/18 08:36:55;;;;;;;;;;;24.10;47.30;;;;;;1536490;75;1130;-57
2023/05/18 08:38:57;;;;;;;;;;;24.10;47.30;;;;;;1541929;76;696;-57
2023/05/18 08:41:00;;;;;;;;;;;24.20;47.40;;;;;;1544557;75;754;-57
2023/05/18 08:43:03;;;;;;;;;;;24.20;47.40;;;;;;1541027;76;1590;-55
2023/05/18 08:45:10;;;;;;;;;;;24.10;47.30;;;;;;1535986;76;1463;-56
2023/05/18 08:47:11;;;;;;;;;;;24.30;47.40;;;;;;1544965;75;1145;-57
2023/05/18 08:49:13;;;;;;;;;;;24.10;47.30;;;;;;1542796;75;676;-56
2023/05/18 08:51:18;;;;;;;;;;;24.00;47.20;;;;;;1549756;75;1938;-57
2023/05/18 08:53:20;;;;;;;;;;;24.00;47.30;;;;;;1536173;75;914;-57
2023/05/18 08:55:22;;;;;;;;;;;24.10;47.50;;;;;;1538267;76;738;-55
2023/05/18 08:57:25;;;;;;;;;;;24.10;47.50;;;;;;1541016;75;1151;-56
2023/05/18 08:59:27;;;;;;;;;;;24.10;47.50;;;;;;1539959;76;1477;-59
2023/05/18 09:01:28;;;;;;;;;;;24.00;47.30;;;;;;1543872;75;714;-58
2023/05/18 09:03:30;;;;;;;;;;;24.00;47.30;;;;;;1555678;76;631;-56
2023/05/18 09:05:32;;;;;;;;;;;24.00;47.30;;;;;;1540859;76;686;-56
2023/05/18 09:07:34;;;;;;;;;;;24.00;47.30;;;;;;1541586;75;1134;-58
2023/05/18 09:09:36;;;;;;;;;;;24.00;47.30;;;;;;1539298;75;703;-59
2023/05/18 09:11:38;;;;;;;;;;;24.00;47.30;;;;;;1544823;75;1951;-57
2023/05/18 09:13:40;;;;;;;;;;;24.00;47.40;;;;;;1542707;75;1405;-58
2023/05/18 09:15:42;;;;;;;;;;;24.00;47.50;;;;;;1545189;75;718;-55
2023/05/18 09:17:43;;;;;;;;;;;24.00;47.40;;;;;;1545873;75;1158;-56
2023/05/18 09:19:45;;;;;;;;;;;24.00;47.50;;;;;;1534742;76;784;-56
2023/05/18 09:21:47;;;;;;;;;;;24.00;47.50;;;;;;1547093;75;670;-57
2023/05/18 09:23:49;;;;;;;;;;;24.00;47.50;;;;;;1543817;75;746;-57
2023/05/18 09:25:51;;;;;;;;;;;24.00;47.50;;;;;;1535928;75;719;-57
2023/05/18 09:27:54;;;;;;;;;;;24.00;47.60;;;;;;1526922;76;1545;-57
2023/05/18 09:29:57;;;;;;;;;;;24.00;47.50;;;;;;1531953;75;734;-56
2023/05/18 09:32:00;;;;;;;;;;;23.90;47.40;;;;;;1542505;75;1939;-56
2023/05/18 09:34:05;;;;;;;;;;;23.90;47.50;;;;;;1541649;76;2443;-57
2023/05/18 09:36:06;;;;;;;;;;;23.90;47.50;;;;;;1542477;75;1195;-54
2023/05/18 09:38:08;;;;;;;;;;;23.90;47.60;;;;;;1538774;75;702;-56
2023/05/18 09:40:10;;;;;;;;;;;23.80;47.60;;;;;;1532669;75;751;-55
2023/05/18 09:42:12;;;;;;;;;;;23.70;47.70;;;;;;1540946;76;1422;-56
2023/05/18 09:44:15;;;;;;;;;;;23.70;47.70;;;;;;1540000;75;704;-56
2023/05/18 09:46:17;;;;;;;;;;;23.80;47.80;;;;;;1547366;76;1157;-57
2023/05/18 09:48:20;;;;;;;;;;;23.70;47.80;;;;;;1547781;75;755;-57
2023/05/18 09:50:22;;;;;;;;;;;23.70;47.80;;;;;;1540271;76;693;-55
2023/05/18 09:52:25;;;;;;;;;;;23.70;47.80;;;;;;1537554;75;1940;-56
2023/05/18 09:54:26;;;;;;;;;;;23.70;47.90;;;;;;1538536;76;758;-54
2023/05/18 09:56:28;;;;;;;;;;;23.70;47.90;;;;;;1543184;75;1288;-54
2023/05/18 09:58:32;;;;;;;;;;;23.60;47.90;;;;;;1541189;76;759;-56
2023/05/18 10:00:36;;;;;;;;;;;23.70;48.00;;;;;;1543888;75;1503;-54
2023/05/18 10:02:47;;;;;;;;;;;23.60;47.90;;;;;;1537926;76;764;-56
2023/05/18 10:04:49;;;;;;;;;;;23.60;48.00;;;;;;1557639;75;763;-57
2023/05/18 10:06:51;;;;;;;;;;;23.60;48.10;;;;;;1548458;76;1161;-55
2023/05/18 10:08:53;;;;;;;;;;;23.60;48.10;;;;;;1556482;75;1540;-58
2023/05/18 10:10:55;;;;;;;;;;;23.50;48.10;;;;;;1544786;75;1937;-59
2023/05/18 10:12:57;;;;;;;;;;;23.60;48.10;;;;;;1539932;75;940;-58
2023/05/18 10:14:59;;;;;;;;;;;23.50;48.10;;;;;;1554653;75;678;-59
2023/05/18 10:17:02;;;;;;;;;;;23.50;48.20;;;;;;1553566;75;1134;-58
2023/05/18 10:19:04;;;;;;;;;;;23.50;48.20;;;;;;1561578;74;593;-59
2023/05/18 10:21:11;;;;;;;;;;;23.50;48.30;;;;;;1562984;75;724;-58
2023/05/18 10:23:12;;;;;;;;;;;23.40;48.20;;;;;;1553661;74;1497;-55
2023/05/18 10:25:20;;;;;;;;;;;23.40;48.20;;;;;;1560147;75;700;-58
2023/05/18 10:27:23;;;;;;;;;;;23.40;48.30;;;;;;1555928;74;1201;-55
2023/05/18 10:29:25;;;;;;;;;;;23.50;48.50;;;;;;1551291;74;755;-56
2023/05/18 10:31:27;;;;;;;;;;;23.40;48.40;;;;;;1560061;74;1940;-59
2023/05/18 10:33:29;;;;;;;;;;;23.40;48.40;;;;;;1563699;74;735;-56
2023/05/18 10:35:31;;;;;;;;;;;23.40;48.40;;;;;;1529542;76;722;-55
2023/05/18 10:37:34;;;;;;;;;;;23.40;48.50;;;;;;1563381;75;1465;-59
2023/05/18 10:39:36;;;;;;;;;;;23.40;48.50;;;;;;1548599;75;712;-56
2023/05/18 10:41:38;;;;;;;;;;;23.40;48.50;;;;;;1551134;75;791;-56
2023/05/18 10:43:40;;;;;;;;;;;23.30;48.60;;;;;;1563019;75;675;-59
2023/05/18 10:45:42;;;;;;;;;;;23.30;48.60;;;;;;1558176;75;704;-55
2023/05/18 10:47:44;;;;;;;;;;;23.30;48.60;;;;;;1555224;74;1079;-57
2023/05/18 10:49:47;;;;;;;;;;;23.30;48.60;;;;;;1547473;75;716;-59
2023/05/18 10:51:48;;;;;;;;;;;23.30;48.80;;;;;;1551585;75;1920;-58
2023/05/18 10:53:50;;;;;;;;;;;23.30;48.80;;;;;;1553513;75;632;-56
2023/05/18 10:55:52;;;;;;;;;;;23.20;48.60;;;;;;1561936;74;727;-59
2023/05/18 10:57:56;;;;;;;;;;;23.30;48.80;;;;;;1563079;75;1176;-56
2023/05/18 10:59:58;;;;;;;;;;;23.20;48.80;;;;;;1549314;74;707;-57
2023/05/18 11:02:00;;;;;;;;;;;23.20;48.80;;;;;;1559165;75;771;-58
2023/05/18 11:04:04;;;;;;;;;;;23.20;48.90;;;;;;1550974;75;732;-57
2023/05/18 11:06:09;;;;;;;;;;;23.20;48.90;;;;;;1549163;75;1386;-59
2023/05/18 11:08:13;;;;;;;;;;;23.20;48.90;;;;;;1548519;75;618;-57
2023/05/18 11:10:15;;;;;;;;;;;23.20;48.90;;;;;;1560882;74;1599;-57
2023/05/18 11:12:17;;;;;;;;;;;23.20;48.90;;;;;;1563198;75;1928;-57
2023/05/18 11:14:29;;;;;;;;;;;23.20;48.90;;;;;;1563579;74;733;-57
2023/05/18 11:16:34;;;;;;;;;;;23.10;49.00;;;;;;1550300;74;1163;-58
2023/05/18 11:18:38;;;;;;;;;;;23.10;49.00;;;;;;1548278;75;979;-57
2023/05/18 11:20:40;;;;;;;;;;;23.10;49.00;;;;;;1543541;75;1450;-58
2023/05/18 11:22:43;;;;;;;;;;;23.10;49.10;;;;;;1550336;76;675;-58
2023/05/18 11:24:46;;;;;;;;;;;23.10;49.00;;;;;;1484314;78;711;-55
2023/05/18 11:26:50;;;;;;;;;;;23.10;49.10;;;;;;1492554;78;1188;-57
2023/05/18 11:28:52;;;;;;;;;;;23.10;49.10;;;;;;1515839;76;1916;-55
2023/05/18 11:30:54;;;;;;;;;;;23.10;49.10;;;;;;1518881;76;744;-58
2023/05/18 11:33:09;;;;;;;;;;;23.10;49.20;;;;;;1530639;76;1951;-57
2023/05/18 11:35:12;;;;;;;;;;;23.00;49.10;;;;;;1510713;76;739;-56
2023/05/18 11:37:14;;;;;;;;;;;23.10;49.20;;;;;;1507847;77;1162;-59
2023/05/18 11:39:18;;;;;;;;;;;23.00;49.10;;;;;;1513098;77;703;-56
2023/05/18 11:41:27;;;;;;;;;;;23.00;49.20;;;;;;1506836;77;1704;-57
2023/05/18 11:43:30;;;;;;;;;;;23.00;49.20;;;;;;1508477;77;671;-58
2023/05/18 11:45:32;;;;;;;;;;;23.00;49.20;;;;;;1501650;77;681;-56
2023/05/18 11:47:35;;;;;;;;;;;23.00;49.30;;;;;;1467627;78;1462;-57
2023/05/18 11:49:38;;;;;;;;;;;23.00;49.30;;;;;;1518264;77;745;-56
2023/05/18 11:51:56;;;;;;;;;;;23.00;49.20;;;;;;1520354;76;1942;-57
2023/05/18 11:53:58;;;;;;;;;;;23.00;49.30;;;;;;1500141;78;746;-58
2023/05/18 11:56:00;;;;;;;;;;;23.00;49.30;;;;;;1503952;78;807;-57
2023/05/18 11:58:02;;;;;;;;;;;23.00;49.30;;;;;;1506962;78;1136;-56
2023/05/18 12:00:08;;;;;;;;;;;23.00;49.30;;;;;;1514655;76;1084;-58
2023/05/18 12:02:13;;;;;;;;;;;23.00;49.40;;;;;;1485369;78;1391;-57
2023/05/18 12:04:14;;;;;;;;;;;23.00;49.30;;;;;;1499013;78;687;-55
2023/05/18 12:06:17;;;;;;;;;;;22.90;49.30;;;;;;1501277;78;1094;-57
2023/05/18 12:08:19;;;;;;;;;;;23.00;49.40;;;;;;1495062;78;778;-56
2023/05/18 12:10:21;;;;;;;;;;;23.00;49.40;;;;;;1495956;78;797;-57